Corinne, UT

5:04 AM MDT on August 31, 2014 (GMT -0600)
MesoWest Great Salt Lake Minerals UT US UUNET | Change Station
CLOSE
Current Station
Personal Weather Station
Location: Corinne, UT
Elevation: 4211 ft
Nearby Weather Stations

Elev 4211 ft 41.30 °N, 112.27 °W | Updated 34 minutes ago

Overcast
Overcast
66 °F
Feels Like 66 °F
N
22
Wind Variable Wind from NNE
Gusts 29.0 mph

Today
High -- | Low -- °F
--% Chance of Precip.
Yesterday
High -- | Low -- °F
Precip. -- in
6:55 AM 8:04 PM
Waxing Crescent, 30% visible
Pressure 29.93 in
Visibility 10.0 miles
Clouds Mostly Cloudy 9000 ft
Overcast 12000 ft
Dew Point 45 °F
Humidity 46%
Rainfall -999.00 in
Snow Depth Not available.
UV 0 out of 12
Pollen 8.60 out of 12
PM2.5 Moderate
Flu Activity Not available.
METAR KBMC 311055Z AUTO 00000KT 10SM BKN090 OVC120 19/03 A2993 RMK AO1 T01920034

More Conditions Fewer Conditions

Pressure 29.93 in
Visibility 10.0 miles
Clouds Mostly Cloudy 9000 ft
Overcast 12000 ft
Dew Point 45 °F
Humidity 46%
Rainfall -999.00 in
Snow Depth Not available.
UV 0 out of 12
Pollen 8.60 out of 12
PM2.5 Moderate
Flu Activity Not available.
METAR KBMC 311055Z AUTO 00000KT 10SM BKN090 OVC120 19/03 A2993 RMK AO1 T01920034

More Conditions Fewer Conditions

10-Day Weather Forecast

Almanac

Astronomy

Aug. 31, 2014 Rise Set
Actual Time 6:55 AM MDT 8:04 PM MDT
Civil Twilight 6:26 AM MDT 8:32 PM MDT
Nautical Twilight 5:52 AM MDT 9:06 PM MDT
Astronomical Twilight 5:17 AM MDT 9:41 PM MDT
Moon 12:49 PM MDT 11:17 PM MDT
Length of Visible Light 14h 05m
Length of Day
13h 08m
Tomorrow will be 2m 38s shorter.
Waxing Crescent, 30% of the Moon is Illuminated
Today
Waxing Crescent
Sep 2
First Quarter
Sep 8
Full
Sep 15
Last Quarter
Sep 24
New

Today's Extremes

State Highs State Lows

Community

WunderPhotos

Upload Photos

1,748,837 photos uploaded!

Nearby

Air Quality

  Air Quality AQ Index Pollutant
Yesterday Good
OZONE
Yesterday Good
PM10
Current Moderate
PM2.5
Sunday Good
OZONE
Monday Good
OZONE

Snow Depth

Station Depth Elevation
Ben Lomond Peak 0 in 8000 ft
Ben Lomond Trail 2 in 6000 ft
Little Bear 0 in 6550 ft
Parrish Creek 0 in 7740 ft
Louis Meadow 0 in 6700 ft

Earthquake Activity

City Distance Mag. Time & Date
No recent earthquake activity has been reported nearby.
Minimum magnitude displayed is 2.5.

Coastal Water Temperatures

Place Temperature
No Stations Reporting

Nearby Weather Stations